createdAt,value
2023-05-15T00:00:51.416Z,7.60
2023-05-15T00:03:18.344Z,8.55
2023-05-15T00:05:46.084Z,7.65
2023-05-15T00:08:12.606Z,8.23
2023-05-15T00:10:42.898Z,8.30
2023-05-15T00:13:18.946Z,8.60
2023-05-15T00:15:45.478Z,8.38
2023-05-15T00:18:11.957Z,8.30
2023-05-15T00:20:38.474Z,8.20
2023-05-15T00:23:05.463Z,8.25
2023-05-15T00:25:31.975Z,7.82
2023-05-15T00:27:58.411Z,8.65
2023-05-15T00:30:24.865Z,7.60
2023-05-15T00:32:51.769Z,8.20
2023-05-15T00:35:18.354Z,7.90
2023-05-15T00:37:44.898Z,7.25
2023-05-15T00:40:34.738Z,9.45
2023-05-15T00:43:02.980Z,8.32
2023-05-15T00:45:30.609Z,9.60
2023-05-15T00:47:58.725Z,8.13
2023-05-15T00:50:26.068Z,8.38
2023-05-15T00:52:53.063Z,8.88
2023-05-15T00:55:19.633Z,9.93
2023-05-15T00:57:47.996Z,9.52
2023-05-15T01:00:16.800Z,9.77
2023-05-15T01:02:44.318Z,8.68
2023-05-15T01:05:10.964Z,9.32
2023-05-15T01:07:45.405Z,9.10
2023-05-15T01:10:12.277Z,9.10
2023-05-15T01:12:41.319Z,9.48
2023-05-15T01:15:08.195Z,9.75
2023-05-15T01:17:34.772Z,9.98
2023-05-15T01:20:06.479Z,9.85
2023-05-15T01:22:51.656Z,9.35
2023-05-15T01:25:49.002Z,9.88
2023-05-15T01:28:22.313Z,10.10
2023-05-15T01:30:50.573Z,10.30
2023-05-15T01:33:34.213Z,10.55
2023-05-15T01:36:07.556Z,11.07
2023-05-15T01:38:47.471Z,10.23
2023-05-15T01:41:40.818Z,10.73
2023-05-15T01:44:14.970Z,10.55
2023-05-15T01:46:45.854Z,11.98
2023-05-15T01:49:15.913Z,11.65
2023-05-15T01:51:44.275Z,11.77
2023-05-15T01:54:12.191Z,11.95
2023-05-15T01:56:40.541Z,12.07
2023-05-15T01:59:08.061Z,12.30
2023-05-15T02:01:36.460Z,12.18
2023-05-15T02:04:04.191Z,10.90
2023-05-15T02:06:31.979Z,11.43
2023-05-15T02:08:58.991Z,11.23
2023-05-15T02:11:25.529Z,11.05
2023-05-15T02:13:52.908Z,11.70
2023-05-15T02:16:19.495Z,14.32
2023-05-15T02:18:46.639Z,11.98
2023-05-15T02:21:13.349Z,10.95
2023-05-15T02:23:40.800Z,11.98
2023-05-15T02:26:13.947Z,13.30
2023-05-15T02:28:58.459Z,13.63
2023-05-15T02:32:00.623Z,12.32
2023-05-15T02:34:50.274Z,12.70
2023-05-15T02:37:20.942Z,12.32
2023-05-15T02:39:49.699Z,12.23
2023-05-15T02:42:17.011Z,14.15
2023-05-15T02:44:44.258Z,11.65
2023-05-15T02:47:11.746Z,11.55
2023-05-15T02:49:39.738Z,11.30
2023-05-15T02:52:06.750Z,11.90
2023-05-15T02:54:33.227Z,11.20
2023-05-15T02:56:59.675Z,12.00
2023-05-15T02:59:26.149Z,11.98
2023-05-15T03:01:52.596Z,12.55
2023-05-15T03:04:19.217Z,13.10
2023-05-15T03:06:45.679Z,12.02
2023-05-15T03:09:12.080Z,12.32
2023-05-15T03:11:38.507Z,13.55
2023-05-15T03:14:04.905Z,12.63
2023-05-15T03:16:31.588Z,12.48
2023-05-15T03:18:58.078Z,12.88
2023-05-15T03:21:24.624Z,13.13
2023-05-15T03:23:51.067Z,12.73
2023-05-15T03:26:17.510Z,12.27
2023-05-15T03:28:43.904Z,11.45
2023-05-15T03:31:10.437Z,11.15
2023-05-15T03:33:38.038Z,12.05
2023-05-15T03:36:05.143Z,12.52
2023-05-15T03:38:31.815Z,12.68
2023-05-15T03:40:58.268Z,13.05
2023-05-15T03:43:24.948Z,13.38
2023-05-15T03:45:51.435Z,12.27
2023-05-15T03:48:17.860Z,13.32
2023-05-15T03:50:45.576Z,12.48
2023-05-15T03:53:12.091Z,12.57
2023-05-15T03:55:38.580Z,12.20
2023-05-15T03:58:05.076Z,12.60
2023-05-15T04:00:31.484Z,14.40
2023-05-15T04:02:57.986Z,13.05
2023-05-15T04:05:24.639Z,13.80
2023-05-15T04:07:51.282Z,12.88
2023-05-15T04:10:17.752Z,13.30
2023-05-15T04:12:44.211Z,13.55
2023-05-15T04:15:22.606Z,14.45
2023-05-15T04:17:51.309Z,12.30
2023-05-15T04:20:19.876Z,14.70
2023-05-15T04:22:46.574Z,13.75
2023-05-15T04:25:14.760Z,14.68
2023-05-15T04:27:42.546Z,14.02
2023-05-15T04:30:09.916Z,13.90
2023-05-15T04:32:37.424Z,15.73
2023-05-15T04:35:10.163Z,13.68
2023-05-15T04:37:37.444Z,14.77
2023-05-15T04:40:04.467Z,14.70
2023-05-15T04:42:31.334Z,15.98
2023-05-15T04:44:57.910Z,15.45
2023-05-15T04:47:24.580Z,15.57
2023-05-15T04:49:51.196Z,15.93
2023-05-15T04:52:17.970Z,14.82
2023-05-15T04:54:44.376Z,14.15
2023-05-15T04:57:10.841Z,16.55
2023-05-15T04:59:37.258Z,16.75
2023-05-15T05:02:04.016Z,16.02
2023-05-15T05:04:30.704Z,16.63
2023-05-15T05:06:57.153Z,16.23
2023-05-15T05:09:23.682Z,15.88
2023-05-15T05:11:50.180Z,16.25
2023-05-15T05:14:16.659Z,15.85
2023-05-15T05:16:45.465Z,16.25
2023-05-15T05:19:12.074Z,17.15
2023-05-15T05:21:38.625Z,15.75
2023-05-15T05:24:05.235Z,14.73
2023-05-15T05:26:31.711Z,15.30
2023-05-15T05:28:58.147Z,17.05
2023-05-15T05:31:24.671Z,16.50
2023-05-15T05:33:52.589Z,16.10
2023-05-15T05:36:19.062Z,15.88
2023-05-15T05:38:45.572Z,16.17
2023-05-15T05:41:12.061Z,15.23
2023-05-15T05:43:38.519Z,15.38
2023-05-15T05:46:04.995Z,15.70
2023-05-15T05:48:31.510Z,14.85
2023-05-15T05:50:58.080Z,15.32
2023-05-15T05:53:24.606Z,15.40
2023-05-15T05:55:51.564Z,14.82
2023-05-15T06:00:50.843Z,12.93
2023-05-15T06:03:17.493Z,12.77
2023-05-15T06:05:44.062Z,13.23
2023-05-15T06:08:11.026Z,13.55
2023-05-15T06:10:37.539Z,13.85
2023-05-15T06:13:03.926Z,11.93
2023-05-15T06:15:30.601Z,12.52
2023-05-15T06:17:57.037Z,10.88
2023-05-15T06:20:23.685Z,11.18
2023-05-15T06:22:50.236Z,10.65
2023-05-15T06:25:16.740Z,9.25
2023-05-15T06:27:43.243Z,9.30
2023-05-15T06:30:10.540Z,10.25
2023-05-15T06:32:37.013Z,9.30
2023-05-15T06:35:03.601Z,9.23
2023-05-15T06:37:30.440Z,8.60
2023-05-15T06:39:56.928Z,8.70
2023-05-15T06:42:23.581Z,8.25
2023-05-15T06:44:50.048Z,9.02
2023-05-15T06:47:16.799Z,7.82
2023-05-15T06:49:43.250Z,8.30
2023-05-15T06:52:09.784Z,7.68
2023-05-15T06:54:36.490Z,8.00
2023-05-15T06:57:02.937Z,7.35
2023-05-15T06:59:29.368Z,7.85
2023-05-15T07:01:56.104Z,8.07
2023-05-15T07:04:22.693Z,6.97
2023-05-15T07:06:49.185Z,7.93
2023-05-15T07:09:15.636Z,7.53
2023-05-15T07:11:42.225Z,7.50
2023-05-15T07:14:08.770Z,8.30
2023-05-15T07:16:35.387Z,6.38
2023-05-15T07:19:01.888Z,6.28
2023-05-15T07:21:28.489Z,6.95
2023-05-15T07:23:54.968Z,6.88
2023-05-15T07:26:34.332Z,7.35
2023-05-15T07:29:04.074Z,6.53
2023-05-15T07:31:33.658Z,5.90
2023-05-15T07:34:00.272Z,6.35
2023-05-15T07:36:26.849Z,6.43
2023-05-15T07:38:53.314Z,5.80
2023-05-15T07:41:19.782Z,6.30
2023-05-15T07:43:46.224Z,6.50
2023-05-15T07:46:12.864Z,7.25
2023-05-15T07:48:39.391Z,6.00
2023-05-15T07:51:06.402Z,5.78
2023-05-15T07:53:33.194Z,5.45
2023-05-15T07:55:59.894Z,5.13
2023-05-15T07:58:26.343Z,5.63
2023-05-15T08:00:52.905Z,5.65
2023-05-15T08:03:19.621Z,4.85
2023-05-15T08:05:47.158Z,4.88
2023-05-15T08:08:13.726Z,5.30
2023-05-15T08:10:40.609Z,5.10
2023-05-15T08:13:07.740Z,4.80
2023-05-15T08:15:34.272Z,5.18
2023-05-15T08:18:00.793Z,4.70
2023-05-15T08:20:27.332Z,4.95
2023-05-15T08:22:53.821Z,5.60
2023-05-15T08:25:20.348Z,5.25
2023-05-15T08:27:46.782Z,4.95
2023-05-15T08:30:13.785Z,5.25
2023-05-15T08:32:40.304Z,5.20
2023-05-15T08:35:07.501Z,5.13
2023-05-15T08:37:33.975Z,4.25
2023-05-15T08:40:00.508Z,4.50
2023-05-15T08:42:40.012Z,4.82
2023-05-15T08:45:07.657Z,4.00
2023-05-15T08:47:38.670Z,4.50
2023-05-15T08:50:12.068Z,4.60
2023-05-15T08:52:41.896Z,4.65
2023-05-15T08:55:10.737Z,4.63
2023-05-15T08:57:38.424Z,4.53
2023-05-15T09:00:09.122Z,5.03
2023-05-15T09:02:37.328Z,5.13
2023-05-15T09:05:06.187Z,4.95
2023-05-15T09:07:33.247Z,4.28
2023-05-15T09:10:01.762Z,4.75
2023-05-15T09:12:28.634Z,4.10
2023-05-15T09:15:12.839Z,4.40
2023-05-15T09:17:40.310Z,5.05
2023-05-15T09:20:08.250Z,4.75
2023-05-15T09:22:36.273Z,4.53
2023-05-15T09:25:04.053Z,4.60
2023-05-15T09:27:31.057Z,4.38
2023-05-15T09:30:08.629Z,4.70
2023-05-15T09:32:37.556Z,5.00
2023-05-15T09:35:04.600Z,5.05
2023-05-15T09:37:32.971Z,4.25
2023-05-15T09:40:10.907Z,4.28
2023-05-15T09:42:37.719Z,4.43
2023-05-15T09:45:04.734Z,4.18
2023-05-15T09:47:31.731Z,4.38
2023-05-15T09:49:58.476Z,5.15
2023-05-15T09:52:25.060Z,4.88
2023-05-15T09:54:51.996Z,4.32
2023-05-15T09:57:22.136Z,4.40
2023-05-15T09:59:49.155Z,5.25
2023-05-15T10:02:34.417Z,5.32
2023-05-15T10:05:01.274Z,4.75
2023-05-15T10:07:31.805Z,5.50
2023-05-15T10:09:59.366Z,4.35
2023-05-15T10:12:26.841Z,4.60
2023-05-15T10:14:56.549Z,5.10
2023-05-15T10:17:23.483Z,4.63
2023-05-15T10:19:58.405Z,5.05
2023-05-15T10:22:32.364Z,4.43
2023-05-15T10:25:03.236Z,4.85
2023-05-15T10:29:58.534Z,4.80
2023-05-15T10:32:26.262Z,4.93
2023-05-15T10:34:54.694Z,4.82
2023-05-15T10:37:22.125Z,4.55
2023-05-15T10:39:50.121Z,5.55
2023-05-15T10:42:17.137Z,5.22
2023-05-15T10:44:43.624Z,4.68
2023-05-15T10:47:10.405Z,5.22
2023-05-15T10:49:36.923Z,5.75
2023-05-15T10:52:03.599Z,4.05
2023-05-15T10:54:30.481Z,4.95
2023-05-15T10:56:57.209Z,4.47
2023-05-15T10:59:32.007Z,3.92
2023-05-15T11:02:23.133Z,4.30
2023-05-15T11:05:00.503Z,4.20
2023-05-15T11:07:27.771Z,3.53
2023-05-15T11:09:55.887Z,3.60
2023-05-15T11:12:23.180Z,3.75
2023-05-15T11:14:52.311Z,3.60
2023-05-15T11:17:18.904Z,3.70
2023-05-15T11:19:51.380Z,4.50
2023-05-15T11:22:18.043Z,2.95
2023-05-15T11:24:51.011Z,4.30
2023-05-15T11:27:23.070Z,4.80
2023-05-15T11:30:08.605Z,3.95
2023-05-15T11:32:45.470Z,4.68
2023-05-15T11:35:14.328Z,5.15
2023-05-15T11:37:43.382Z,4.32
2023-05-15T11:40:15.391Z,4.07
2023-05-15T11:42:42.043Z,4.13
2023-05-15T11:45:10.790Z,3.95
2023-05-15T11:47:37.470Z,4.00
2023-05-15T11:50:06.570Z,4.13
2023-05-15T11:52:33.431Z,4.50
2023-05-15T11:55:00.824Z,4.38
2023-05-15T11:57:27.323Z,4.00
2023-05-15T11:59:54.835Z,4.47
2023-05-15T12:02:21.349Z,4.82
2023-05-15T12:04:50.230Z,4.72
2023-05-15T12:07:17.922Z,4.82
2023-05-15T12:09:49.895Z,4.50
2023-05-15T12:12:16.534Z,5.93
2023-05-15T12:14:43.227Z,4.85
2023-05-15T12:17:09.688Z,5.78
2023-05-15T12:19:38.127Z,5.32
2023-05-15T12:22:05.940Z,5.18
2023-05-15T12:24:32.527Z,6.80
2023-05-15T12:26:59.644Z,5.72
2023-05-15T12:29:26.911Z,4.80
2023-05-15T12:31:54.005Z,5.55
2023-05-15T12:34:21.509Z,5.25
2023-05-15T12:36:48.012Z,6.03
2023-05-15T12:39:14.559Z,5.50
2023-05-15T12:41:41.102Z,6.35
2023-05-15T12:44:16.436Z,5.60
2023-05-15T12:46:43.196Z,5.80
2023-05-15T12:49:09.933Z,4.57
2023-05-15T12:51:43.019Z,4.50
2023-05-15T12:54:20.518Z,4.82
2023-05-15T12:56:48.041Z,4.72
2023-05-15T12:59:14.614Z,4.05
2023-05-15T13:01:44.633Z,4.15
2023-05-15T13:04:11.454Z,4.43
2023-05-15T13:06:46.605Z,3.90
2023-05-15T13:09:13.892Z,3.78
2023-05-15T13:11:44.901Z,3.97
2023-05-15T13:14:16.997Z,4.70
2023-05-15T13:16:46.660Z,3.70
2023-05-15T13:19:13.798Z,3.70
2023-05-15T13:21:40.450Z,3.78
2023-05-15T13:24:09.870Z,4.80
2023-05-15T13:26:36.318Z,4.85
2023-05-15T13:29:02.935Z,3.85
2023-05-15T13:31:29.391Z,3.40
2023-05-15T13:33:56.151Z,3.30
2023-05-15T13:36:22.667Z,3.53
2023-05-15T13:38:49.136Z,3.05
2023-05-15T13:41:15.763Z,2.95
2023-05-15T13:43:42.265Z,2.55
2023-05-15T13:46:08.855Z,3.10
2023-05-15T13:48:35.372Z,2.85
2023-05-15T13:51:01.833Z,2.33
2023-05-15T13:53:28.344Z,2.35
2023-05-15T13:55:54.919Z,2.47
2023-05-15T13:58:21.509Z,2.40
2023-05-15T14:00:48.691Z,2.22
2023-05-15T14:03:15.562Z,1.58
2023-05-15T14:05:42.185Z,1.67
2023-05-15T14:08:09.121Z,1.83
2023-05-15T14:10:38.693Z,2.72
2023-05-15T14:13:05.197Z,2.58
2023-05-15T14:15:31.653Z,2.92
2023-05-15T14:17:58.109Z,2.40
2023-05-15T14:20:24.938Z,2.95
2023-05-15T14:22:51.573Z,2.80
2023-05-15T14:25:18.076Z,2.53
2023-05-15T14:27:44.594Z,3.03
2023-05-15T14:30:11.370Z,1.95
2023-05-15T14:32:37.931Z,2.13
2023-05-15T14:35:05.027Z,2.47
2023-05-15T14:37:31.526Z,2.22
2023-05-15T14:39:58.077Z,2.67
2023-05-15T14:42:26.999Z,3.13
2023-05-15T14:44:53.674Z,2.80
2023-05-15T14:47:20.271Z,2.92
2023-05-15T14:49:46.716Z,3.10
2023-05-15T14:52:13.189Z,2.53
2023-05-15T14:54:40.153Z,3.20
2023-05-15T14:57:07.590Z,2.70
2023-05-15T14:59:34.367Z,2.83
2023-05-15T15:02:01.275Z,2.65
2023-05-15T15:04:30.387Z,2.60
2023-05-15T15:06:57.233Z,2.40
2023-05-15T15:09:25.616Z,2.95
2023-05-15T15:11:53.737Z,2.85
2023-05-15T15:14:20.375Z,2.53
2023-05-15T15:16:47.065Z,3.65
2023-05-15T15:19:14.083Z,2.50
2023-05-15T15:21:41.011Z,2.45
2023-05-15T15:24:08.302Z,2.65
2023-05-15T15:26:34.894Z,2.30
2023-05-15T15:29:01.488Z,2.47
2023-05-15T15:31:30.122Z,2.40
2023-05-15T15:33:57.565Z,2.30
2023-05-15T15:36:25.447Z,2.83
2023-05-15T15:38:52.086Z,2.58
2023-05-15T15:41:18.641Z,2.17
2023-05-15T15:43:45.113Z,3.08
2023-05-15T15:46:11.936Z,4.95
2023-05-15T15:48:38.505Z,2.58
2023-05-15T15:51:05.823Z,2.60
2023-05-15T15:53:34.392Z,3.53
2023-05-15T15:56:01.410Z,2.42
2023-05-15T15:58:29.504Z,2.40
2023-05-15T16:00:56.161Z,2.33
2023-05-15T16:03:22.804Z,2.70
2023-05-15T16:05:49.391Z,2.53
2023-05-15T16:08:15.944Z,2.92
2023-05-15T16:10:42.640Z,2.53
2023-05-15T16:13:09.269Z,2.58
2023-05-15T16:15:35.787Z,3.25
2023-05-15T16:18:02.290Z,3.15
2023-05-15T16:20:29.286Z,3.25
2023-05-15T16:22:55.880Z,3.17
2023-05-15T16:25:22.455Z,3.58
2023-05-15T16:27:48.945Z,3.30
2023-05-15T16:30:15.538Z,3.15
2023-05-15T16:32:42.226Z,3.50
2023-05-15T16:35:09.074Z,4.25
2023-05-15T16:37:35.581Z,4.78
2023-05-15T16:40:02.763Z,4.88
2023-05-15T16:42:29.269Z,5.30
2023-05-15T16:44:55.828Z,6.05
2023-05-15T16:47:22.328Z,5.53
2023-05-15T16:49:50.101Z,5.50
2023-05-15T16:52:17.083Z,7.18
2023-05-15T16:54:43.528Z,7.13
2023-05-15T16:57:09.959Z,7.18
2023-05-15T16:59:36.502Z,6.10
2023-05-15T17:02:03.200Z,7.50
2023-05-15T17:04:33.106Z,7.38
2023-05-15T17:06:59.820Z,6.88
2023-05-15T17:09:26.496Z,7.63
2023-05-15T17:11:53.096Z,6.82
2023-05-15T17:14:19.601Z,7.35
2023-05-15T17:16:46.189Z,7.80
2023-05-15T17:19:13.025Z,7.93
2023-05-15T17:21:39.685Z,7.22
2023-05-15T17:24:06.275Z,7.28
2023-05-15T17:26:32.821Z,5.90
2023-05-15T17:28:59.356Z,9.32
2023-05-15T17:31:26.909Z,7.22
2023-05-15T17:33:53.482Z,5.93
2023-05-15T17:36:19.947Z,6.53
2023-05-15T17:38:46.436Z,6.32
2023-05-15T17:41:12.995Z,7.20
2023-05-15T17:43:39.541Z,5.80
2023-05-15T17:46:06.143Z,6.00
2023-05-15T17:48:33.400Z,6.88
2023-05-15T17:50:59.869Z,7.18
2023-05-15T17:53:26.665Z,6.47
2023-05-15T17:55:53.146Z,6.35
2023-05-15T17:58:21.109Z,7.63
2023-05-15T18:00:47.688Z,6.53
2023-05-15T18:03:14.419Z,5.82
2023-05-15T18:05:40.949Z,7.05
2023-05-15T18:08:07.410Z,6.88
2023-05-15T18:10:33.946Z,8.07
2023-05-15T18:13:00.463Z,8.02
2023-05-15T18:15:27.132Z,8.18
2023-05-15T18:17:53.863Z,9.98
2023-05-15T18:20:20.480Z,8.75
2023-05-15T18:22:47.025Z,9.13
2023-05-15T18:25:13.645Z,7.82
2023-05-15T18:27:40.264Z,7.97
2023-05-15T18:30:07.523Z,8.57
2023-05-15T18:32:34.130Z,7.95
2023-05-15T18:35:00.765Z,9.40
2023-05-15T18:37:27.292Z,7.97
2023-05-15T18:39:56.666Z,8.27
2023-05-15T18:42:23.584Z,9.30
2023-05-15T18:44:50.467Z,7.78
2023-05-15T18:47:17.324Z,9.65
2023-05-15T18:49:44.333Z,10.30
2023-05-15T18:52:11.102Z,9.25
2023-05-15T18:54:38.874Z,10.05
2023-05-15T18:57:05.613Z,8.75
2023-05-15T18:59:32.198Z,9.88
2023-05-15T19:01:58.716Z,9.43
2023-05-15T19:04:25.425Z,9.68
2023-05-15T19:06:52.440Z,10.02
2023-05-15T19:09:19.148Z,10.10
2023-05-15T19:11:46.922Z,9.60
2023-05-15T19:14:15.492Z,10.02
2023-05-15T19:16:42.548Z,9.95
2023-05-15T19:19:09.857Z,10.02
2023-05-15T19:21:39.616Z,9.80
2023-05-15T19:24:06.578Z,8.55
2023-05-15T19:26:33.415Z,9.75
2023-05-15T19:29:00.021Z,8.13
2023-05-15T19:31:31.977Z,14.90
2023-05-15T19:33:59.765Z,8.50
2023-05-15T19:36:26.797Z,10.13
2023-05-15T19:38:53.498Z,8.85
2023-05-15T19:41:20.060Z,9.02
2023-05-15T19:43:47.178Z,8.27
2023-05-15T19:46:13.880Z,8.73
2023-05-15T19:48:40.773Z,9.10
2023-05-15T19:51:07.373Z,9.38
2023-05-15T19:53:34.333Z,8.50
2023-05-15T19:56:01.026Z,9.73
2023-05-15T19:58:27.618Z,8.75
2023-05-15T20:00:54.798Z,9.18
2023-05-15T20:03:22.165Z,9.43
2023-05-15T20:05:49.253Z,8.50
2023-05-15T20:08:17.149Z,9.30
2023-05-15T20:10:44.647Z,9.43
2023-05-15T20:13:11.720Z,8.80
2023-05-15T20:15:40.077Z,8.50
2023-05-15T20:18:07.596Z,8.82
2023-05-15T20:20:35.852Z,8.32
2023-05-15T20:23:02.537Z,8.45
2023-05-15T20:25:30.038Z,8.68
2023-05-15T20:27:58.586Z,8.40
2023-05-15T20:30:26.946Z,7.80
2023-05-15T20:32:53.879Z,7.43
2023-05-15T20:35:20.806Z,8.63
2023-05-15T20:37:47.449Z,7.53
2023-05-15T20:40:15.717Z,7.50
2023-05-15T20:42:42.411Z,7.10
2023-05-15T20:45:09.547Z,8.40
2023-05-15T20:47:36.179Z,7.82
2023-05-15T20:50:02.797Z,7.75
2023-05-15T20:52:29.394Z,7.88
2023-05-15T20:54:55.953Z,7.65
2023-05-15T20:57:22.528Z,7.35
2023-05-15T20:59:48.979Z,7.78
2023-05-15T21:02:15.931Z,8.35
2023-05-15T21:04:42.793Z,7.32
2023-05-15T21:07:09.439Z,9.07
2023-05-15T21:09:35.929Z,8.02
2023-05-15T21:12:03.725Z,7.93
2023-05-15T21:14:30.306Z,8.07
2023-05-15T21:16:56.893Z,8.75
2023-05-15T21:19:23.526Z,8.32
2023-05-15T21:21:50.086Z,8.77
2023-05-15T21:24:16.555Z,8.85
2023-05-15T21:26:43.047Z,9.65
2023-05-15T21:29:09.874Z,9.35
2023-05-15T21:31:36.467Z,9.40
2023-05-15T21:34:03.109Z,9.55
2023-05-15T21:36:29.576Z,9.10
2023-05-15T21:38:56.101Z,9.13
2023-05-15T21:41:22.601Z,9.65
2023-05-15T21:43:49.064Z,10.15
2023-05-15T21:46:15.572Z,9.60
2023-05-15T21:48:42.047Z,9.77
2023-05-15T21:51:08.551Z,9.43
2023-05-15T21:53:35.383Z,8.95
2023-05-15T21:56:03.036Z,8.77
2023-05-15T21:58:29.860Z,8.60
2023-05-15T22:00:56.324Z,8.60
2023-05-15T22:03:23.061Z,8.60
2023-05-15T22:05:50.818Z,9.50
2023-05-15T22:08:17.287Z,9.07
2023-05-15T22:10:43.870Z,7.88
2023-05-15T22:13:11.020Z,9.68
2023-05-15T22:15:37.655Z,8.90
2023-05-15T22:18:08.067Z,8.85
2023-05-15T22:20:34.605Z,9.57
2023-05-15T22:23:01.097Z,7.93
2023-05-15T22:25:27.619Z,8.68
2023-05-15T22:27:54.137Z,8.85
2023-05-15T22:30:20.890Z,9.30
2023-05-15T22:32:47.410Z,9.38
2023-05-15T22:35:13.888Z,9.10
2023-05-15T22:37:41.995Z,8.77
2023-05-15T22:40:11.225Z,8.93
2023-05-15T22:42:37.915Z,9.48
2023-05-15T22:45:05.933Z,9.57
2023-05-15T22:47:32.762Z,9.77
2023-05-15T22:49:59.307Z,9.55
2023-05-15T22:52:25.896Z,9.18
2023-05-15T22:54:52.371Z,9.27
2023-05-15T22:57:19.036Z,9.85
2023-05-15T22:59:45.776Z,8.70
2023-05-15T23:02:12.198Z,9.27
2023-05-15T23:04:38.651Z,9.88
2023-05-15T23:07:05.225Z,10.27
2023-05-15T23:09:31.767Z,10.48
2023-05-15T23:11:58.197Z,10.20
2023-05-15T23:14:25.430Z,10.00
2023-05-15T23:16:52.122Z,9.57
2023-05-15T23:19:18.669Z,10.60
2023-05-15T23:21:45.183Z,9.00
2023-05-15T23:24:11.606Z,10.20
2023-05-15T23:26:38.117Z,11.00
2023-05-15T23:29:04.596Z,11.00
2023-05-15T23:31:32.694Z,10.40
2023-05-15T23:33:59.229Z,10.82
2023-05-15T23:36:25.681Z,11.35
2023-05-15T23:38:52.135Z,11.68
2023-05-15T23:41:19.761Z,11.40
2023-05-15T23:43:46.171Z,12.15
2023-05-15T23:46:12.696Z,12.82
2023-05-15T23:48:39.196Z,12.18
2023-05-15T23:51:05.930Z,12.27
2023-05-15T23:53:32.382Z,12.88
2023-05-15T23:55:58.837Z,14.38
2023-05-15T23:58:25.266Z,15.75
